FLIGHT DETAILS
Pilot: VVC115 Andres Duque Aircraft: FLIGHTFACTOR A320 ULTIMATE VVC HK-5164 Distance: 1050NM
Departure SKBO Arrival SPIM Duration 2.43
Validation Validated Type Regular Tail Number HK-5222
ZFW 60169 Block Fuel/Initial FOB 6,296/0 Flight Fuel 5,951
Passengers 142 Cargo 15980 Alternate SPZO
Departure Time Cruise Speed 0460 Flight Level 360
Flight Type IFR Aircraft Type A320 Weight Unit Kg
Date 2019-05-05 Pilot Comments Network IVAO
Crashed No Validator Comments Flight Rating 80

 ROUTE
ROUTE KAMI3A GIR UL305 PUNUD UT234 VUKOK UL305 TAP UT228 ILROL ILROL4
REMARKS OPR/ VIVACOLOMBIA REG/HK5222 DOF/05/05/19 RMK/TCAS PBN/A1B1C1D1S1O1 /WWW VIVACOLOMBIAVIRTUAL CF/
 FLIGHT FAILURES
Crashed OK Beacon off & Engine Running OK KIAS Above 250 below 10000 FT OK
Lights OFF below 10000 FT Fail Lights ON above 10000 FT Fail Stall OK
Overspeed OK Flight paused OK Refueling OK
Slew detected OK Taxi & Taxi lights off OK Take off & lights off OK
Landing & lights off OK Landed in not planned airport OK Taxi Speed Fail
Wrong altimeter in Take off OK Wrong altimeter in Landing OK
 LANDING ANALYSIS
Landing wind 258º/8 kt Landing heading 20
Landing VS: -253.75 ft/min Landing IAS: 147.07 kt
Landing Force G 1.4 G Landing Bank -0.4
Landing Pitch 7.1 Landing Flaps 0
Navigation Lights ON Landing Lights ON
Beacon Lights ON Strobe Lights ON
 FLIGHT MAP
 ALTITUDE CHART
 FLIGHT FINANCIAL REPORT
Regular Flight :SKBO - SPIM 2,308,500.00
TOTAL 2,308,500.00
 MAIN EVENTS
DATE EVENTIASALTITUDE
2019-05-05 09:10:51 SIM ACARS version 1.4.108366
2019-05-05 09:10:51 BOARDING08366
2019-05-05 09:19:28 STARTING ENGINE 2 08366
2019-05-05 09:20:19 STARTING ENGINE 1 08366
2019-05-05 09:21:03 FLAPS EXTENSION 16 % 08366
2019-05-05 09:21:03 FLAPS EXTENSION 26 % 08366
2019-05-05 09:21:04 FLAPS EXTENSION 31 % 08366
2019-05-05 09:21:04 FLAPS EXTENSION 27 % 08366
2019-05-05 09:21:04 FLAPS EXTENSION 22 % 08366
2019-05-05 09:21:04 FLAPS EXTENSION 23 % 08366
2019-05-05 09:21:04 FLAPS EXTENSION 22 % 08366
2019-05-05 09:21:04 FLAPS EXTENSION 23 % 08366
2019-05-05 09:21:05 FLAPS EXTENSION 22 % 08366
2019-05-05 09:21:05 FLAPS EXTENSION 25 % 08366
2019-05-05 09:21:05 FLAPS EXTENSION 23 % 08366
2019-05-05 09:21:05 FLAPS EXTENSION 27 % 08366
2019-05-05 09:21:06 FLAPS EXTENSION 22 % 08366
2019-05-05 09:21:06 FLAPS EXTENSION 21 % 08366
2019-05-05 09:21:06 FLAPS EXTENSION 22 % 08366
2019-05-05 09:21:06 FLAPS EXTENSION 27 % 08366
2019-05-05 09:21:06 FLAPS EXTENSION 24 % 08366
2019-05-05 09:21:07 FLAPS EXTENSION 23 % 08366
2019-05-05 09:21:07 FLAPS EXTENSION 22 % 08366
2019-05-05 09:21:08 FLAPS EXTENSION 23 % 08366
2019-05-05 09:21:08 FLAPS EXTENSION 24 % 08366
2019-05-05 09:21:09 FLAPS EXTENSION 23 % 08366
2019-05-05 09:21:09 FLAPS EXTENSION 22 % 08366
2019-05-05 09:21:10 FLAPS EXTENSION 23 % 08366
2019-05-05 09:21:11 FLAPS EXTENSION 22 % 08366
2019-05-05 09:21:11 FLAPS EXTENSION 23 % 08366
2019-05-05 09:21:11 FLAPS EXTENSION 24 % 08366
2019-05-05 09:21:12 FLAPS EXTENSION 24 % 08366
2019-05-05 09:21:12 FLAPS EXTENSION 23 % 08366
2019-05-05 09:21:12 FLAPS EXTENSION 22 % 08366
2019-05-05 09:21:12 FLAPS EXTENSION 23 % 08366
2019-05-05 09:21:13 FLAPS EXTENSION 24 % 08366
2019-05-05 09:21:13 FLAPS EXTENSION 25 % 08366
2019-05-05 09:21:13 FLAPS EXTENSION 24 % 08366
2019-05-05 09:21:13 FLAPS EXTENSION 25 % 08366
2019-05-05 09:21:14 FLAPS EXTENSION 23 % 08366
2019-05-05 09:21:14 FLAPS EXTENSION 22 % 08366
2019-05-05 09:21:18 FLAPS EXTENSION 23 % 08366
2019-05-05 09:21:19 FLAPS EXTENSION 22 % 08366
2019-05-05 09:21:21 FLAPS EXTENSION 20 % 08366
2019-05-05 09:21:23 FLAPS EXTENSION 21 % 08366
2019-05-05 09:21:39 FLAPS EXTENSION 20 % 08366
2019-05-05 09:21:46 FLAPS EXTENSION 21 % 08366
2019-05-05 09:24:10 TAXI TO THE RWY 128365
2019-05-05 09:24:59 FLAPS EXTENSION 20 % 88363
2019-05-05 09:25:06 FLAPS EXTENSION 21 % 88363
2019-05-05 09:25:50 FLAPS EXTENSION 20 % 48366
2019-05-05 09:26:09 FLAPS EXTENSION 21 % 88366
2019-05-05 09:28:00 FLAPS EXTENSION 20 % 58365
2019-05-05 09:28:27 FLAPS EXTENSION 21 % 158364
2019-05-05 09:29:25 FLAPS EXTENSION 20 % 158360
2019-05-05 09:29:27 FLAPS EXTENSION 21 % 158360
2019-05-05 09:32:31 FLAPS EXTENSION 22 % 118353
2019-05-05 09:32:35 FLAPS EXTENSION 21 % 78353
2019-05-05 09:32:42 FLAPS EXTENSION 20 % 58353
2019-05-05 09:32:52 ROLLING FOR TAKE OFF398353
2019-05-05 09:33:22 TAKE OFF1548365
2019-05-05 09:33:22 LIGHTS OFF BELOW 10000 ft1548366
2019-05-05 09:33:29 GEAR UP1658471
2019-05-05 09:34:15 LIGHTS ON ABOVE 10000 ft18710502
2019-05-05 09:34:37 FLAPS EXTENSION 10 % 20511139
2019-05-05 09:34:37 FLAPS EXTENSION 0 % 20511141
2019-05-05 09:56:52 CRUISE25936033
2019-05-05 10:36:03 CLIMBING26336081
2019-05-05 10:36:33 CRUISE26336094
2019-05-05 11:25:23 DESCEND26436075
2019-05-05 11:26:13 CRUISE26335966
2019-05-05 11:37:54 DESCEND26135514
2019-05-05 11:55:24 FLAPS EXTENSION 4 % 2116005
2019-05-05 11:55:24 FLAPS EXTENSION 9 % 2116004
2019-05-05 11:55:24 FLAPS EXTENSION 14 % 2116002
2019-05-05 11:55:24 FLAPS EXTENSION 15 % 2116001
2019-05-05 11:55:24 FLAPS EXTENSION 14 % 2115998
2019-05-05 11:58:53 FLAPS EXTENSION 12 % 1973301
2019-05-05 11:58:53 FLAPS EXTENSION 15 % 1973296
2019-05-05 11:58:53 FLAPS EXTENSION 18 % 1973295
2019-05-05 11:58:53 FLAPS EXTENSION 24 % 1973294
2019-05-05 11:58:53 FLAPS EXTENSION 25 % 1973293
2019-05-05 11:58:53 FLAPS EXTENSION 27 % 1973291
2019-05-05 11:58:54 FLAPS EXTENSION 29 % 1973290
2019-05-05 11:58:54 FLAPS EXTENSION 30 % 1973287
2019-05-05 11:58:56 FLAPS EXTENSION 34 % 1963266
2019-05-05 11:58:56 FLAPS EXTENSION 37 % 1963264
2019-05-05 11:58:56 FLAPS EXTENSION 42 % 1963263
2019-05-05 11:58:56 FLAPS EXTENSION 44 % 1963262
2019-05-05 11:59:33 FLAPS EXTENSION 44 % 1702950
2019-05-05 11:59:33 FLAPS EXTENSION 48 % 1702950
2019-05-05 11:59:33 FLAPS EXTENSION 56 % 1702950
2019-05-05 11:59:33 FLAPS EXTENSION 60 % 1702951
2019-05-05 11:59:34 FLAPS EXTENSION 62 % 1692951
2019-05-05 11:59:36 FLAPS EXTENSION 61 % 1662952
2019-05-05 11:59:36 FLAPS EXTENSION 64 % 1662952
2019-05-05 11:59:36 FLAPS EXTENSION 64 % 1662952
2019-05-05 11:59:36 FLAPS EXTENSION 65 % 1662952
2019-05-05 11:59:36 FLAPS EXTENSION 69 % 1662952
2019-05-05 11:59:37 FLAPS EXTENSION 70 % 1662952
2019-05-05 11:59:53 CRUISE1522948
2019-05-05 12:00:02 GEAR DOWN1512909
2019-05-05 12:00:23 DESCEND1472736
2019-05-05 12:04:10 LANDING147116
2019-05-05 12:04:41 TAXI TO THE GATE20115
2019-05-05 12:04:41 TAXI SPEED ABOVE 25 KTS18115
2019-05-05 12:04:45 FLAPS EXTENSION 55 % 15115
2019-05-05 12:04:45 FLAPS EXTENSION 34 % 15115
2019-05-05 12:04:45 FLAPS EXTENSION 11 % 14115
2019-05-05 12:04:46 FLAPS EXTENSION 1 % 14115
2019-05-05 12:04:46 FLAPS EXTENSION 0 % 13115
2019-05-05 12:07:29 STOPPING ENGINE 2 0115
2019-05-05 12:07:29 STOPPING ENGINE 1 0115
 ACARS DATA
DATE IASGSALTITUDEFUEL CONSUMED OATFLIGHT STATUS
2019-05-05 09:11:51008366011BOARDING
2019-05-05 09:12:51008366011BOARDING
2019-05-05 09:13:51008366111BOARDING
2019-05-05 09:14:51008366211BOARDING
2019-05-05 09:15:51008366511BOARDING
2019-05-05 09:16:510083661011BOARDING
2019-05-05 09:17:510283661411BOARDING
2019-05-05 09:18:510283651911BOARDING
2019-05-05 09:19:510083652711BOARDING
2019-05-05 09:20:510083653911BOARDING
2019-05-05 09:21:510083655012BOARDING
2019-05-05 09:22:510083655912BOARDING
2019-05-05 09:23:510483657012BOARDING
2019-05-05 09:24:5171383638312TAXI TO THE RWY
2019-05-05 09:25:5131183669612TAXI TO THE RWY
2019-05-05 09:26:511221836610812TAXI TO THE RWY
2019-05-05 09:27:5138836411612TAXI TO THE RWY
2019-05-05 09:28:511319836213112TAXI TO THE RWY
2019-05-05 09:29:511522835814312TAXI TO THE RWY
2019-05-05 09:30:511724835315512TAXI TO THE RWY
2019-05-05 09:31:5101835316412TAXI TO THE RWY
2019-05-05 09:32:513439835319912TAXI TO THE RWY
2019-05-05 09:33:5117519695503295CLIMBING
2019-05-05 09:34:51218260114644421CLIMBING
2019-05-05 09:35:5123130213736542-2CLIMBING
2019-05-05 09:36:5123231516088631-7CLIMBING
2019-05-05 09:37:5126135017468721-10CLIMBING
2019-05-05 09:38:5128738818589805-13CLIMBING
2019-05-05 09:39:5128739620402886-17CLIMBING
2019-05-05 09:40:5128740521901958-21CLIMBING
2019-05-05 09:41:51287413233691031-25CLIMBING
2019-05-05 09:42:51287420247451101-28CLIMBING
2019-05-05 09:43:51287416258801169-31CLIMBING
2019-05-05 09:44:51287420270191235-34CLIMBING
2019-05-05 09:45:51287426280731299-37CLIMBING
2019-05-05 09:46:51287432290461361-39CLIMBING
2019-05-05 09:47:51287439298771421-41CLIMBING
2019-05-05 09:48:51287445306451479-43CLIMBING
2019-05-05 09:49:51287449313521534-45CLIMBING
2019-05-05 09:50:51282448322411590-47CLIMBING
2019-05-05 09:51:51277446330311643-49CLIMBING
2019-05-05 09:52:51272444337881694-50CLIMBING
2019-05-05 09:53:51268443344771744-52CLIMBING
2019-05-05 09:54:51264441351231793-54CLIMBING
2019-05-05 09:55:51260440357221840-55CLIMBING
2019-05-05 09:56:51258440360321884-56CLIMBING
2019-05-05 09:57:51258439360351923-56CRUISE
2019-05-05 09:58:51258440360361962-56CRUISE
2019-05-05 09:59:51260443360242003-56CRUISE
2019-05-05 10:00:51262449359402044-55CRUISE
2019-05-05 10:01:51262450359432086-55CRUISE
2019-05-05 10:02:51263449359542127-55CRUISE
2019-05-05 10:03:51262448359422166-55CRUISE
2019-05-05 10:04:51262448359302206-55CRUISE
2019-05-05 10:05:51262449359332246-55CRUISE
2019-05-05 10:06:51262448359382286-55CRUISE
2019-05-05 10:07:51262448359402326-55CRUISE
2019-05-05 10:08:51262448359442366-55CRUISE
2019-05-05 10:09:51262448359422406-55CRUISE
2019-05-05 10:10:51262448359392445-55CRUISE
2019-05-05 10:11:51262448359412485-55CRUISE
2019-05-05 10:12:51262448359432525-55CRUISE
2019-05-05 10:13:51262448359682565-56CRUISE
2019-05-05 10:14:51262448359582606-55CRUISE
2019-05-05 10:15:51262448359602645-55CRUISE
2019-05-05 10:16:51262448359622684-55CRUISE
2019-05-05 10:17:51262448359612724-55CRUISE
2019-05-05 10:18:51263448359632764-55CRUISE
2019-05-05 10:19:51263448359622803-55CRUISE
2019-05-05 10:20:51262448359642843-56CRUISE
2019-05-05 10:21:51262447359572883-55CRUISE
2019-05-05 10:22:51261446360282924-56CRUISE
2019-05-05 10:23:51262447360652965-56CRUISE
2019-05-05 10:24:51262447360663003-56CRUISE
2019-05-05 10:25:51261447360633041-56CRUISE
2019-05-05 10:26:51261449360543080-56CRUISE
2019-05-05 10:27:51262450360703120-56CRUISE
2019-05-05 10:28:51262450360713156-56CRUISE
2019-05-05 10:29:51262450360773195-56CRUISE
2019-05-05 10:30:51262450360713235-56CRUISE
2019-05-05 10:31:51262450360653274-56CRUISE
2019-05-05 10:32:51261450360583312-56CRUISE
2019-05-05 10:33:51262450360593351-56CRUISE
2019-05-05 10:34:51262450360673392-56CRUISE
2019-05-05 10:35:51262450360683431-56CRUISE
2019-05-05 10:36:51262449360933471-56CRUISE
2019-05-05 10:37:51262450360853510-56CRUISE
2019-05-05 10:38:51261450362193552-56CRUISE
2019-05-05 10:39:51262451362003592-56CRUISE
2019-05-05 10:40:52262450362013631-56CRUISE
2019-05-05 10:41:51262450361993670-56CRUISE
2019-05-05 10:42:51262450361983710-56CRUISE
2019-05-05 10:43:51262450361993749-56CRUISE
2019-05-05 10:44:51262450361983789-56CRUISE
2019-05-05 10:45:51262450362013829-56CRUISE
2019-05-05 10:46:51262450362023868-56CRUISE
2019-05-05 10:47:51262450360523906-56CRUISE
2019-05-05 10:48:51261450360623942-56CRUISE
2019-05-05 10:49:51262450360563982-56CRUISE
2019-05-05 10:50:51262450360624022-56CRUISE
2019-05-05 10:51:51262451360664061-56CRUISE
2019-05-05 10:52:51262451360684099-56CRUISE
2019-05-05 10:53:51258462360164143-56CRUISE
2019-05-05 10:54:51264470360814187-56CRUISE
2019-05-05 10:55:51265472361144229-56CRUISE
2019-05-05 10:56:51265472361134269-56CRUISE
2019-05-05 10:57:51264471360894308-56CRUISE
2019-05-05 10:58:51263470360654346-56CRUISE
2019-05-05 10:59:51262469360524385-56CRUISE
2019-05-05 11:00:51262469360444424-56CRUISE
2019-05-05 11:01:51262469360494464-56CRUISE
2019-05-05 11:02:51261469360524503-56CRUISE
2019-05-05 11:03:51262470360594542-56CRUISE
2019-05-05 11:04:51262470360674582-56CRUISE
2019-05-05 11:05:51262470360694622-56CRUISE
2019-05-05 11:06:51262470360684661-56CRUISE
2019-05-05 11:07:51262469360964698-56CRUISE
2019-05-05 11:08:51262469360964737-56CRUISE
2019-05-05 11:09:51262468360904776-56CRUISE
2019-05-05 11:10:51262467360864815-56CRUISE
2019-05-05 11:11:51262467360854853-56CRUISE
2019-05-05 11:12:51263465361034892-56CRUISE
2019-05-05 11:13:51262464360944930-56CRUISE
2019-05-05 11:14:51262463360794969-56CRUISE
2019-05-05 11:15:51261463360775008-56CRUISE
2019-05-05 11:16:51262463360875047-56CRUISE
2019-05-05 11:17:51261462360955086-56CRUISE
2019-05-05 11:18:51262462360915125-56CRUISE
2019-05-05 11:19:51262462360915163-56CRUISE
2019-05-05 11:20:51262462361035202-56CRUISE
2019-05-05 11:21:51262461360975241-56CRUISE
2019-05-05 11:22:51262461360895275-56CRUISE
2019-05-05 11:23:51262460360835310-56CRUISE
2019-05-05 11:24:51263461360815345-56CRUISE
2019-05-05 11:25:51263460359475381-55DESCEND
2019-05-05 11:26:51262458359565420-55CRUISE
2019-05-05 11:27:51262458359475459-55CRUISE
2019-05-05 11:28:51261459359385497-55CRUISE
2019-05-05 11:29:51262460359465537-55CRUISE
2019-05-05 11:30:51262461359635577-55CRUISE
2019-05-05 11:31:51262461359655615-56CRUISE
2019-05-05 11:32:51263460359705653-56CRUISE
2019-05-05 11:33:51262459359655692-56CRUISE
2019-05-05 11:34:51262458359515730-55CRUISE
2019-05-05 11:35:51262458359475769-55CRUISE
2019-05-05 11:36:51261458359495808-55CRUISE
2019-05-05 11:37:51261453355675838-55CRUISE
2019-05-05 11:38:51265449346015861-52DESCEND
2019-05-05 11:39:51280450323725869-47DESCEND
2019-05-05 11:40:51288443301005877-41DESCEND
2019-05-05 11:41:51288430280725885-37DESCEND
2019-05-05 11:42:51286424271035889-34DESCEND
2019-05-05 11:43:51283412250645898-29DESCEND
2019-05-05 11:44:51280402230215906-24DESCEND
2019-05-05 11:45:51277394209865915-19DESCEND
2019-05-05 11:46:51278389189395924-14DESCEND
2019-05-05 11:47:51283384168855934-9DESCEND
2019-05-05 11:48:51289377148485944-4DESCEND
2019-05-05 11:49:512773521348259550DESCEND
2019-05-05 11:50:512543131254259651DESCEND
2019-05-05 11:51:512523021075359765DESCEND
2019-05-05 11:52:51255298923459878DESCEND
2019-05-05 11:53:51246278785559999DESCEND
2019-05-05 11:54:512152386751601110DESCEND
2019-05-05 11:55:512102275612602512DESCEND
2019-05-05 11:56:512142264591603713DESCEND
2019-05-05 11:57:512112193700605014DESCEND
2019-05-05 11:58:511962033319606815DESCEND
2019-05-05 11:59:511521552950608616DESCEND
2019-05-05 12:00:511471502416611917DESCEND
2019-05-05 12:01:511471511745614718DESCEND
2019-05-05 12:02:511491501030617820DESCEND
2019-05-05 12:03:51150155311621223DESCEND
2019-05-05 12:04:511018114625023TAXI TO THE GATE
2019-05-05 12:05:511610114626423TAXI TO THE GATE
2019-05-05 12:06:5122114627823TAXI TO THE GATE
2019-05-05 12:07:5100114628923TAXI TO THE GATE
2019-05-05 12:08:5100114629523TAXI TO THE GATE


Viva Colombia Virtual VA